sensor_id;sensor_type;location;lat;lon;timestamp;temperature;humidity
15483;DHT22;7843;50.330;7.312;2023-02-15T00:01:43;-0.40;99.90
15483;DHT22;7843;50.330;7.312;2023-02-15T00:04:13;-0.40;99.90
15483;DHT22;7843;50.330;7.312;2023-02-15T00:06:40;-0.40;99.90
15483;DHT22;7843;50.330;7.312;2023-02-15T00:09:09;-0.40;99.90
15483;DHT22;7843;50.330;7.312;2023-02-15T00:11:36;-0.50;99.90
15483;DHT22;7843;50.330;7.312;2023-02-15T00:14:18;-0.50;99.90
15483;DHT22;7843;50.330;7.312;2023-02-15T00:16:46;-0.50;99.90
15483;DHT22;7843;50.330;7.312;2023-02-15T00:19:15;-0.50;99.90
15483;DHT22;7843;50.330;7.312;2023-02-15T00:21:43;-0.60;99.90
15483;DHT22;7843;50.330;7.312;2023-02-15T00:24:12;-0.60;99.90
15483;DHT22;7843;50.330;7.312;2023-02-15T00:26:40;-0.60;99.90
15483;DHT22;7843;50.330;7.312;2023-02-15T00:29:08;-0.60;99.90
15483;DHT22;7843;50.330;7.312;2023-02-15T00:31:35;-0.50;99.90
15483;DHT22;7843;50.330;7.312;2023-02-15T00:34:20;-0.50;99.90
15483;DHT22;7843;50.330;7.312;2023-02-15T00:36:47;-0.50;99.90
15483;DHT22;7843;50.330;7.312;2023-02-15T00:39:14;-0.50;99.90
15483;DHT22;7843;50.330;7.312;2023-02-15T00:41:42;-0.40;99.90
15483;DHT22;7843;50.330;7.312;2023-02-15T00:44:09;-0.40;99.90
15483;DHT22;7843;50.330;7.312;2023-02-15T00:46:36;-0.40;99.90
15483;DHT22;7843;50.330;7.312;2023-02-15T00:49:03;-0.50;99.90
15483;DHT22;7843;50.330;7.312;2023-02-15T00:51:30;-0.40;99.90
15483;DHT22;7843;50.330;7.312;2023-02-15T00:53:57;-0.50;99.90
15483;DHT22;7843;50.330;7.312;2023-02-15T00:56:24;-0.40;99.90
15483;DHT22;7843;50.330;7.312;2023-02-15T00:58:50;-0.40;99.90
15483;DHT22;7843;50.330;7.312;2023-02-15T01:01:19;-0.40;99.90
15483;DHT22;7843;50.330;7.312;2023-02-15T01:03:46;-0.40;99.90
15483;DHT22;7843;50.330;7.312;2023-02-15T01:06:15;-0.40;99.90
15483;DHT22;7843;50.330;7.312;2023-02-15T01:08:43;-0.40;99.90
15483;DHT22;7843;50.330;7.312;2023-02-15T01:11:17;-0.40;99.90
15483;DHT22;7843;50.330;7.312;2023-02-15T01:13:50;-0.40;99.90
15483;DHT22;7843;50.330;7.312;2023-02-15T01:16:17;-0.40;99.90
15483;DHT22;7843;50.330;7.312;2023-02-15T01:18:44;-0.50;99.90
15483;DHT22;7843;50.330;7.312;2023-02-15T01:21:17;-0.60;99.90
15483;DHT22;7843;50.330;7.312;2023-02-15T01:23:44;-0.60;99.90
15483;DHT22;7843;50.330;7.312;2023-02-15T01:26:11;-0.60;99.90
15483;DHT22;7843;50.330;7.312;2023-02-15T01:28:37;-0.50;99.90
15483;DHT22;7843;50.330;7.312;2023-02-15T01:31:16;-0.50;99.90
15483;DHT22;7843;50.330;7.312;2023-02-15T01:33:43;-0.50;99.90
15483;DHT22;7843;50.330;7.312;2023-02-15T01:36:10;-0.50;99.90
15483;DHT22;7843;50.330;7.312;2023-02-15T01:38:36;-0.50;99.90
15483;DHT22;7843;50.330;7.312;2023-02-15T01:41:03;-0.60;99.90
15483;DHT22;7843;50.330;7.312;2023-02-15T01:43:54;-0.60;99.90
15483;DHT22;7843;50.330;7.312;2023-02-15T01:46:35;-0.50;99.90
15483;DHT22;7843;50.330;7.312;2023-02-15T01:49:11;-0.60;99.90
15483;DHT22;7843;50.330;7.312;2023-02-15T01:51:41;-0.50;99.90
15483;DHT22;7843;50.330;7.312;2023-02-15T01:54:17;-0.50;99.90
15483;DHT22;7843;50.330;7.312;2023-02-15T01:56:46;-0.50;99.90
15483;DHT22;7843;50.330;7.312;2023-02-15T01:59:19;-0.50;99.90
15483;DHT22;7843;50.330;7.312;2023-02-15T02:01:55;-0.40;99.90
15483;DHT22;7843;50.330;7.312;2023-02-15T02:04:41;-0.40;99.90
15483;DHT22;7843;50.330;7.312;2023-02-15T02:07:09;-0.40;99.90
15483;DHT22;7843;50.330;7.312;2023-02-15T02:09:38;-0.40;99.90
15483;DHT22;7843;50.330;7.312;2023-02-15T02:12:06;-0.40;99.90
15483;DHT22;7843;50.330;7.312;2023-02-15T02:14:33;-0.40;99.90
15483;DHT22;7843;50.330;7.312;2023-02-15T02:17:11;-0.40;99.90
15483;DHT22;7843;50.330;7.312;2023-02-15T02:28:25;-0.30;99.90
15483;DHT22;7843;50.330;7.312;2023-02-15T02:34:04;-0.30;99.90
15483;DHT22;7843;50.330;7.312;2023-02-15T02:36:42;-0.30;99.90
15483;DHT22;7843;50.330;7.312;2023-02-15T02:39:21;-0.30;99.90
15483;DHT22;7843;50.330;7.312;2023-02-15T02:44:46;-0.20;99.90
15483;DHT22;7843;50.330;7.312;2023-02-15T02:49:59;-0.10;99.90
15483;DHT22;7843;50.330;7.312;2023-02-15T02:52:46;-0.20;99.90
15483;DHT22;7843;50.330;7.312;2023-02-15T02:55:27;-0.20;99.90
15483;DHT22;7843;50.330;7.312;2023-02-15T02:58:15;-0.30;99.90
15483;DHT22;7843;50.330;7.312;2023-02-15T03:01:06;-0.30;99.90
15483;DHT22;7843;50.330;7.312;2023-02-15T03:03:38;-0.30;99.90
15483;DHT22;7843;50.330;7.312;2023-02-15T03:06:15;-0.30;99.90
15483;DHT22;7843;50.330;7.312;2023-02-15T03:08:51;-0.40;99.90
15483;DHT22;7843;50.330;7.312;2023-02-15T03:11:21;-0.40;99.90
15483;DHT22;7843;50.330;7.312;2023-02-15T03:13:48;-0.50;99.90
15483;DHT22;7843;50.330;7.312;2023-02-15T03:16:17;-0.50;99.90
15483;DHT22;7843;50.330;7.312;2023-02-15T03:19:08;-0.50;99.90
15483;DHT22;7843;50.330;7.312;2023-02-15T03:24:13;-0.30;99.90
15483;DHT22;7843;50.330;7.312;2023-02-15T03:26:44;-0.40;99.90
15483;DHT22;7843;50.330;7.312;2023-02-15T03:29:12;-0.40;99.90
15483;DHT22;7843;50.330;7.312;2023-02-15T03:31:43;-0.40;99.90
15483;DHT22;7843;50.330;7.312;2023-02-15T03:34:14;-0.40;99.90
15483;DHT22;7843;50.330;7.312;2023-02-15T03:40:21;-0.40;99.90
15483;DHT22;7843;50.330;7.312;2023-02-15T03:43:19;-0.50;99.90
15483;DHT22;7843;50.330;7.312;2023-02-15T03:45:51;-0.50;99.90
15483;DHT22;7843;50.330;7.312;2023-02-15T03:48:27;-0.50;99.90
15483;DHT22;7843;50.330;7.312;2023-02-15T03:51:00;-0.50;99.90
15483;DHT22;7843;50.330;7.312;2023-02-15T03:53:47;-0.50;99.90
15483;DHT22;7843;50.330;7.312;2023-02-15T03:56:14;-0.50;99.90
15483;DHT22;7843;50.330;7.312;2023-02-15T03:58:41;-0.60;99.90
15483;DHT22;7843;50.330;7.312;2023-02-15T04:01:37;-0.60;99.90
15483;DHT22;7843;50.330;7.312;2023-02-15T04:04:16;-0.50;99.90
15483;DHT22;7843;50.330;7.312;2023-02-15T04:06:43;-0.40;99.90
15483;DHT22;7843;50.330;7.312;2023-02-15T04:09:12;-0.40;99.90
15483;DHT22;7843;50.330;7.312;2023-02-15T04:11:57;-0.40;99.90
15483;DHT22;7843;50.330;7.312;2023-02-15T04:14:24;-0.40;99.90
15483;DHT22;7843;50.330;7.312;2023-02-15T04:17:10;-0.50;99.90
15483;DHT22;7843;50.330;7.312;2023-02-15T04:19:36;-0.40;99.90
15483;DHT22;7843;50.330;7.312;2023-02-15T04:22:21;-0.40;99.90
15483;DHT22;7843;50.330;7.312;2023-02-15T04:25:07;-0.50;99.90
15483;DHT22;7843;50.330;7.312;2023-02-15T04:27:44;-0.50;99.90
15483;DHT22;7843;50.330;7.312;2023-02-15T04:30:12;-0.50;99.90
15483;DHT22;7843;50.330;7.312;2023-02-15T04:32:39;-0.50;99.90
15483;DHT22;7843;50.330;7.312;2023-02-15T04:35:07;-0.50;99.90
15483;DHT22;7843;50.330;7.312;2023-02-15T04:37:33;-0.50;99.90
15483;DHT22;7843;50.330;7.312;2023-02-15T04:40:00;-0.60;99.90
15483;DHT22;7843;50.330;7.312;2023-02-15T04:42:27;-0.60;99.90
15483;DHT22;7843;50.330;7.312;2023-02-15T04:44:54;-0.70;99.90
15483;DHT22;7843;50.330;7.312;2023-02-15T04:47:21;-0.70;99.90
15483;DHT22;7843;50.330;7.312;2023-02-15T04:49:48;-0.70;99.90
15483;DHT22;7843;50.330;7.312;2023-02-15T04:52:15;-0.70;99.90
15483;DHT22;7843;50.330;7.312;2023-02-15T04:54:44;-0.80;99.90
15483;DHT22;7843;50.330;7.312;2023-02-15T04:57:11;-0.80;99.90
15483;DHT22;7843;50.330;7.312;2023-02-15T04:59:37;-0.80;99.90
15483;DHT22;7843;50.330;7.312;2023-02-15T05:02:04;-0.80;99.90
15483;DHT22;7843;50.330;7.312;2023-02-15T05:04:31;-0.90;99.90
15483;DHT22;7843;50.330;7.312;2023-02-15T05:06:58;-0.90;99.90
15483;DHT22;7843;50.330;7.312;2023-02-15T05:09:25;-0.80;99.90
15483;DHT22;7843;50.330;7.312;2023-02-15T05:11:51;-0.80;99.90
15483;DHT22;7843;50.330;7.312;2023-02-15T05:14:18;-0.80;99.90
15483;DHT22;7843;50.330;7.312;2023-02-15T05:16:44;-0.80;99.90
15483;DHT22;7843;50.330;7.312;2023-02-15T05:19:11;-0.80;99.90
15483;DHT22;7843;50.330;7.312;2023-02-15T05:21:38;-0.80;99.90
15483;DHT22;7843;50.330;7.312;2023-02-15T05:24:05;-0.70;99.90
15483;DHT22;7843;50.330;7.312;2023-02-15T05:26:51;-0.80;99.90
15483;DHT22;7843;50.330;7.312;2023-02-15T05:29:36;-0.80;99.90
15483;DHT22;7843;50.330;7.312;2023-02-15T05:32:03;-0.80;99.90
15483;DHT22;7843;50.330;7.312;2023-02-15T05:34:30;-0.90;99.90
15483;DHT22;7843;50.330;7.312;2023-02-15T05:36:57;-0.90;99.90
15483;DHT22;7843;50.330;7.312;2023-02-15T05:39:24;-0.90;99.90
15483;DHT22;7843;50.330;7.312;2023-02-15T05:41:51;-1.00;99.90
15483;DHT22;7843;50.330;7.312;2023-02-15T05:44:17;-1.00;99.90
15483;DHT22;7843;50.330;7.312;2023-02-15T05:46:44;-1.00;99.90
15483;DHT22;7843;50.330;7.312;2023-02-15T05:49:10;-1.00;99.90
15483;DHT22;7843;50.330;7.312;2023-02-15T05:51:37;-1.00;99.90
15483;DHT22;7843;50.330;7.312;2023-02-15T05:54:04;-1.00;99.90
15483;DHT22;7843;50.330;7.312;2023-02-15T05:56:31;-1.00;99.90
15483;DHT22;7843;50.330;7.312;2023-02-15T05:58:57;-1.00;99.90
15483;DHT22;7843;50.330;7.312;2023-02-15T06:01:24;-1.00;99.90
15483;DHT22;7843;50.330;7.312;2023-02-15T06:03:50;-1.00;99.90
15483;DHT22;7843;50.330;7.312;2023-02-15T06:06:18;-1.00;99.90
15483;DHT22;7843;50.330;7.312;2023-02-15T06:08:45;-0.90;99.90
15483;DHT22;7843;50.330;7.312;2023-02-15T06:11:12;-1.00;99.90
15483;DHT22;7843;50.330;7.312;2023-02-15T06:13:38;-1.00;99.90
15483;DHT22;7843;50.330;7.312;2023-02-15T06:16:06;-1.00;99.90
15483;DHT22;7843;50.330;7.312;2023-02-15T06:18:33;-1.00;99.90
15483;DHT22;7843;50.330;7.312;2023-02-15T06:21:00;-1.00;99.90
15483;DHT22;7843;50.330;7.312;2023-02-15T06:23:29;-1.00;99.90
15483;DHT22;7843;50.330;7.312;2023-02-15T06:25:55;-1.00;99.90
15483;DHT22;7843;50.330;7.312;2023-02-15T06:28:22;-1.00;99.90
15483;DHT22;7843;50.330;7.312;2023-02-15T06:30:49;-1.00;99.90
15483;DHT22;7843;50.330;7.312;2023-02-15T06:33:16;-1.00;99.90
15483;DHT22;7843;50.330;7.312;2023-02-15T06:35:42;-1.00;99.90
15483;DHT22;7843;50.330;7.312;2023-02-15T06:38:09;-1.00;99.90
15483;DHT22;7843;50.330;7.312;2023-02-15T06:40:36;-0.90;99.90
15483;DHT22;7843;50.330;7.312;2023-02-15T06:43:02;-1.00;99.90
15483;DHT22;7843;50.330;7.312;2023-02-15T06:45:29;-1.00;99.90
15483;DHT22;7843;50.330;7.312;2023-02-15T06:47:56;-1.00;99.90
15483;DHT22;7843;50.330;7.312;2023-02-15T06:50:22;-1.00;99.90
15483;DHT22;7843;50.330;7.312;2023-02-15T06:52:49;-1.00;99.90
15483;DHT22;7843;50.330;7.312;2023-02-15T06:55:15;-1.00;99.90
15483;DHT22;7843;50.330;7.312;2023-02-15T06:57:42;-1.00;99.90
15483;DHT22;7843;50.330;7.312;2023-02-15T07:00:09;-1.00;99.90
15483;DHT22;7843;50.330;7.312;2023-02-15T07:02:36;-1.10;99.90
15483;DHT22;7843;50.330;7.312;2023-02-15T07:05:02;-1.10;99.90
15483;DHT22;7843;50.330;7.312;2023-02-15T07:07:31;-1.10;99.90
15483;DHT22;7843;50.330;7.312;2023-02-15T07:09:58;-1.10;99.90
15483;DHT22;7843;50.330;7.312;2023-02-15T07:12:24;-1.10;99.90
15483;DHT22;7843;50.330;7.312;2023-02-15T07:15:13;-1.10;99.90
15483;DHT22;7843;50.330;7.312;2023-02-15T07:17:40;-1.10;99.90
15483;DHT22;7843;50.330;7.312;2023-02-15T07:20:13;-1.10;99.90
15483;DHT22;7843;50.330;7.312;2023-02-15T07:22:40;-1.10;99.90
15483;DHT22;7843;50.330;7.312;2023-02-15T07:25:09;-1.20;99.90
15483;DHT22;7843;50.330;7.312;2023-02-15T07:27:36;-1.10;99.90
15483;DHT22;7843;50.330;7.312;2023-02-15T07:30:04;-1.10;99.90
15483;DHT22;7843;50.330;7.312;2023-02-15T07:32:32;-1.20;99.90
15483;DHT22;7843;50.330;7.312;2023-02-15T07:34:59;-1.10;99.90
15483;DHT22;7843;50.330;7.312;2023-02-15T07:37:26;-1.10;99.90
15483;DHT22;7843;50.330;7.312;2023-02-15T07:39:53;-1.10;99.90
15483;DHT22;7843;50.330;7.312;2023-02-15T07:42:20;-1.10;99.90
15483;DHT22;7843;50.330;7.312;2023-02-15T07:44:47;-1.10;99.90
15483;DHT22;7843;50.330;7.312;2023-02-15T07:47:14;-1.10;99.90
15483;DHT22;7843;50.330;7.312;2023-02-15T07:49:41;-1.00;99.90
15483;DHT22;7843;50.330;7.312;2023-02-15T07:52:07;-1.00;99.90
15483;DHT22;7843;50.330;7.312;2023-02-15T07:54:34;-1.10;99.90
15483;DHT22;7843;50.330;7.312;2023-02-15T07:57:01;-1.10;99.90
15483;DHT22;7843;50.330;7.312;2023-02-15T07:59:28;-1.10;99.90
15483;DHT22;7843;50.330;7.312;2023-02-15T08:01:55;-1.10;99.90
15483;DHT22;7843;50.330;7.312;2023-02-15T08:04:23;-1.10;99.90
15483;DHT22;7843;50.330;7.312;2023-02-15T08:06:53;-1.10;99.90
15483;DHT22;7843;50.330;7.312;2023-02-15T08:09:20;-1.20;99.90
15483;DHT22;7843;50.330;7.312;2023-02-15T08:11:47;-1.20;99.90
15483;DHT22;7843;50.330;7.312;2023-02-15T08:16:42;-1.10;99.90
15483;DHT22;7843;50.330;7.312;2023-02-15T08:19:13;-1.10;99.90
15483;DHT22;7843;50.330;7.312;2023-02-15T08:21:43;-1.00;99.90
15483;DHT22;7843;50.330;7.312;2023-02-15T08:24:11;-1.00;99.90
15483;DHT22;7843;50.330;7.312;2023-02-15T08:26:39;-0.90;99.90
15483;DHT22;7843;50.330;7.312;2023-02-15T08:29:08;-0.90;99.90
15483;DHT22;7843;50.330;7.312;2023-02-15T08:31:35;-0.90;99.90
15483;DHT22;7843;50.330;7.312;2023-02-15T08:34:04;-0.90;99.90
15483;DHT22;7843;50.330;7.312;2023-02-15T08:36:32;-0.80;99.90
15483;DHT22;7843;50.330;7.312;2023-02-15T08:38:59;-0.70;99.90
15483;DHT22;7843;50.330;7.312;2023-02-15T08:41:32;-0.70;99.90
15483;DHT22;7843;50.330;7.312;2023-02-15T08:44:02;-0.70;99.90
15483;DHT22;7843;50.330;7.312;2023-02-15T08:46:32;-0.60;99.90
15483;DHT22;7843;50.330;7.312;2023-02-15T08:48:59;-0.70;99.90
15483;DHT22;7843;50.330;7.312;2023-02-15T08:51:28;-0.60;99.90
15483;DHT22;7843;50.330;7.312;2023-02-15T08:53:57;-0.50;99.90
15483;DHT22;7843;50.330;7.312;2023-02-15T08:56:29;-0.50;99.90
15483;DHT22;7843;50.330;7.312;2023-02-15T08:58:58;-0.40;99.90
15483;DHT22;7843;50.330;7.312;2023-02-15T09:01:28;-0.30;99.90
15483;DHT22;7843;50.330;7.312;2023-02-15T09:04:05;-0.30;99.90
15483;DHT22;7843;50.330;7.312;2023-02-15T09:06:37;-0.30;99.90
15483;DHT22;7843;50.330;7.312;2023-02-15T09:09:05;-0.10;99.90
15483;DHT22;7843;50.330;7.312;2023-02-15T09:11:37;-0.10;99.90
15483;DHT22;7843;50.330;7.312;2023-02-15T09:14:09;0.00;99.90
15483;DHT22;7843;50.330;7.312;2023-02-15T09:16:37;0.10;99.90
15483;DHT22;7843;50.330;7.312;2023-02-15T09:19:05;0.30;99.90
15483;DHT22;7843;50.330;7.312;2023-02-15T09:21:33;0.40;99.90
15483;DHT22;7843;50.330;7.312;2023-02-15T09:24:04;0.50;99.90
15483;DHT22;7843;50.330;7.312;2023-02-15T09:26:33;0.50;99.90
15483;DHT22;7843;50.330;7.312;2023-02-15T09:29:01;0.50;99.90
15483;DHT22;7843;50.330;7.312;2023-02-15T09:31:31;0.60;99.90
15483;DHT22;7843;50.330;7.312;2023-02-15T09:33:59;0.70;99.90
15483;DHT22;7843;50.330;7.312;2023-02-15T09:36:34;0.80;99.90
15483;DHT22;7843;50.330;7.312;2023-02-15T09:39:13;0.90;99.90
15483;DHT22;7843;50.330;7.312;2023-02-15T09:55:53;1.30;99.90
15483;DHT22;7843;50.330;7.312;2023-02-15T10:04:30;1.70;99.90
15483;DHT22;7843;50.330;7.312;2023-02-15T10:09:55;1.60;99.90
15483;DHT22;7843;50.330;7.312;2023-02-15T10:12:57;1.70;99.90
15483;DHT22;7843;50.330;7.312;2023-02-15T10:15:51;1.50;99.90
15483;DHT22;7843;50.330;7.312;2023-02-15T10:18:38;1.50;99.90
15483;DHT22;7843;50.330;7.312;2023-02-15T10:26:45;1.70;99.90
15483;DHT22;7843;50.330;7.312;2023-02-15T10:29:38;1.80;99.90
15483;DHT22;7843;50.330;7.312;2023-02-15T10:32:16;1.80;99.90
15483;DHT22;7843;50.330;7.312;2023-02-15T10:35:10;1.90;99.90
15483;DHT22;7843;50.330;7.312;2023-02-15T10:51:00;2.50;99.90
15483;DHT22;7843;50.330;7.312;2023-02-15T10:56:16;2.90;99.90
15483;DHT22;7843;50.330;7.312;2023-02-15T11:01:46;3.10;99.90
15483;DHT22;7843;50.330;7.312;2023-02-15T11:04:39;3.30;99.90
15483;DHT22;7843;50.330;7.312;2023-02-15T11:12:44;3.40;99.90
15483;DHT22;7843;50.330;7.312;2023-02-15T11:15:24;3.50;99.90
15483;DHT22;7843;50.330;7.312;2023-02-15T11:17:57;3.60;99.90
15483;DHT22;7843;50.330;7.312;2023-02-15T11:20:36;3.70;99.90
15483;DHT22;7843;50.330;7.312;2023-02-15T11:23:13;3.70;99.90
15483;DHT22;7843;50.330;7.312;2023-02-15T11:25:45;3.70;99.90
15483;DHT22;7843;50.330;7.312;2023-02-15T11:28:22;3.70;99.90
15483;DHT22;7843;50.330;7.312;2023-02-15T11:30:54;3.80;99.90
15483;DHT22;7843;50.330;7.312;2023-02-15T11:33:27;3.90;99.90
15483;DHT22;7843;50.330;7.312;2023-02-15T11:36:08;4.00;99.90
15483;DHT22;7843;50.330;7.312;2023-02-15T11:38:36;4.00;99.90
15483;DHT22;7843;50.330;7.312;2023-02-15T11:41:11;4.10;99.90
15483;DHT22;7843;50.330;7.312;2023-02-15T11:46:30;4.20;99.90
15483;DHT22;7843;50.330;7.312;2023-02-15T11:48:56;4.30;99.90
15483;DHT22;7843;50.330;7.312;2023-02-15T11:51:25;4.50;99.90
15483;DHT22;7843;50.330;7.312;2023-02-15T11:53:54;4.60;99.90
15483;DHT22;7843;50.330;7.312;2023-02-15T11:56:23;4.90;99.90
15483;DHT22;7843;50.330;7.312;2023-02-15T11:58:55;5.10;99.90
15483;DHT22;7843;50.330;7.312;2023-02-15T12:01:35;5.30;99.90
15483;DHT22;7843;50.330;7.312;2023-02-15T12:04:40;5.40;99.90
15483;DHT22;7843;50.330;7.312;2023-02-15T12:07:24;5.50;99.60
15483;DHT22;7843;50.330;7.312;2023-02-15T12:12:43;5.70;98.90
15483;DHT22;7843;50.330;7.312;2023-02-15T12:15:12;5.80;98.90
15483;DHT22;7843;50.330;7.312;2023-02-15T12:17:41;5.90;98.90
15483;DHT22;7843;50.330;7.312;2023-02-15T12:23:02;6.20;98.80
15483;DHT22;7843;50.330;7.312;2023-02-15T12:25:43;6.40;98.70
15483;DHT22;7843;50.330;7.312;2023-02-15T12:28:44;6.50;98.70
15483;DHT22;7843;50.330;7.312;2023-02-15T12:31:33;6.60;98.70
15483;DHT22;7843;50.330;7.312;2023-02-15T12:34:08;6.70;98.50
15483;DHT22;7843;50.330;7.312;2023-02-15T12:36:43;6.80;98.10
15483;DHT22;7843;50.330;7.312;2023-02-15T12:42:15;7.00;98.20
15483;DHT22;7843;50.330;7.312;2023-02-15T12:44:36;7.00;97.80
15483;DHT22;7843;50.330;7.312;2023-02-15T12:49:38;7.00;98.10
15483;DHT22;7843;50.330;7.312;2023-02-15T12:52:23;7.20;98.30
15483;DHT22;7843;50.330;7.312;2023-02-15T12:54:50;7.50;98.10
15483;DHT22;7843;50.330;7.312;2023-02-15T12:59:49;7.70;97.40
15483;DHT22;7843;50.330;7.312;2023-02-15T13:02:43;7.90;96.80
15483;DHT22;7843;50.330;7.312;2023-02-15T13:05:14;8.20;96.60
15483;DHT22;7843;50.330;7.312;2023-02-15T13:07:47;9.10;95.30
15483;DHT22;7843;50.330;7.312;2023-02-15T13:10:51;10.60;91.90
15483;DHT22;7843;50.330;7.312;2023-02-15T13:13:21;12.00;87.00
15483;DHT22;7843;50.330;7.312;2023-02-15T13:15:51;13.20;83.50
15483;DHT22;7843;50.330;7.312;2023-02-15T13:18:53;14.00;80.90
15483;DHT22;7843;50.330;7.312;2023-02-15T13:21:21;14.80;78.40
15483;DHT22;7843;50.330;7.312;2023-02-15T13:24:06;15.50;76.30
15483;DHT22;7843;50.330;7.312;2023-02-15T13:26:34;16.00;75.30
15483;DHT22;7843;50.330;7.312;2023-02-15T13:29:27;16.40;72.40
15483;DHT22;7843;50.330;7.312;2023-02-15T13:31:57;16.60;72.20
15483;DHT22;7843;50.330;7.312;2023-02-15T13:34:34;17.10;70.60
15483;DHT22;7843;50.330;7.312;2023-02-15T13:37:32;17.40;70.50
15483;DHT22;7843;50.330;7.312;2023-02-15T13:39:58;17.70;68.40
15483;DHT22;7843;50.330;7.312;2023-02-15T13:42:56;17.90;67.00
15483;DHT22;7843;50.330;7.312;2023-02-15T13:45:32;18.40;65.30
15483;DHT22;7843;50.330;7.312;2023-02-15T13:48:23;18.10;65.00
15483;DHT22;7843;50.330;7.312;2023-02-15T13:57:16;18.90;64.40
15483;DHT22;7843;50.330;7.312;2023-02-15T14:08:13;18.10;66.30
15483;DHT22;7843;50.330;7.312;2023-02-15T14:13:44;18.20;66.00
15483;DHT22;7843;50.330;7.312;2023-02-15T14:22:02;18.20;63.40
15483;DHT22;7843;50.330;7.312;2023-02-15T14:24:41;17.90;63.40
15483;DHT22;7843;50.330;7.312;2023-02-15T14:27:25;17.90;62.40
15483;DHT22;7843;50.330;7.312;2023-02-15T14:30:12;17.70;63.40
15483;DHT22;7843;50.330;7.312;2023-02-15T14:32:48;17.60;64.00
15483;DHT22;7843;50.330;7.312;2023-02-15T14:35:18;18.10;62.60
15483;DHT22;7843;50.330;7.312;2023-02-15T14:40:51;17.10;63.30
15483;DHT22;7843;50.330;7.312;2023-02-15T14:46:24;15.20;67.10
15483;DHT22;7843;50.330;7.312;2023-02-15T14:48:54;14.60;68.20
15483;DHT22;7843;50.330;7.312;2023-02-15T14:54:07;13.50;71.00
15483;DHT22;7843;50.330;7.312;2023-02-15T14:56:34;13.00;72.80
15483;DHT22;7843;50.330;7.312;2023-02-15T14:59:21;12.70;74.20
15483;DHT22;7843;50.330;7.312;2023-02-15T15:02:00;12.40;75.40
15483;DHT22;7843;50.330;7.312;2023-02-15T15:09:41;11.70;77.20
15483;DHT22;7843;50.330;7.312;2023-02-15T15:14:49;11.40;77.70
15483;DHT22;7843;50.330;7.312;2023-02-15T15:20:00;11.00;79.80
15483;DHT22;7843;50.330;7.312;2023-02-15T15:22:29;10.70;81.10
15483;DHT22;7843;50.330;7.312;2023-02-15T15:25:04;10.60;81.80
15483;DHT22;7843;50.330;7.312;2023-02-15T15:27:55;10.50;81.10
15483;DHT22;7843;50.330;7.312;2023-02-15T15:35:43;10.60;79.80
15483;DHT22;7843;50.330;7.312;2023-02-15T15:38:36;10.60;79.80
15483;DHT22;7843;50.330;7.312;2023-02-15T15:41:23;10.30;80.70
15483;DHT22;7843;50.330;7.312;2023-02-15T15:49:46;9.90;82.40
15483;DHT22;7843;50.330;7.312;2023-02-15T15:52:17;9.70;82.90
15483;DHT22;7843;50.330;7.312;2023-02-15T15:54:46;9.70;83.20
15483;DHT22;7843;50.330;7.312;2023-02-15T15:57:33;9.40;84.60
15483;DHT22;7843;50.330;7.312;2023-02-15T16:00:02;9.20;85.20
15483;DHT22;7843;50.330;7.312;2023-02-15T16:02:29;9.10;85.60
15483;DHT22;7843;50.330;7.312;2023-02-15T16:05:06;9.00;85.80
15483;DHT22;7843;50.330;7.312;2023-02-15T16:07:33;9.00;85.80
15483;DHT22;7843;50.330;7.312;2023-02-15T16:10:05;8.90;86.20
15483;DHT22;7843;50.330;7.312;2023-02-15T16:12:34;8.70;86.50
15483;DHT22;7843;50.330;7.312;2023-02-15T16:15:13;8.70;86.60
15483;DHT22;7843;50.330;7.312;2023-02-15T16:17:45;8.60;86.50
15483;DHT22;7843;50.330;7.312;2023-02-15T16:22:46;8.50;86.30
15483;DHT22;7843;50.330;7.312;2023-02-15T16:25:44;8.30;86.90
15483;DHT22;7843;50.330;7.312;2023-02-15T16:28:08;8.20;87.40
15483;DHT22;7843;50.330;7.312;2023-02-15T16:30:37;8.10;87.40
15483;DHT22;7843;50.330;7.312;2023-02-15T16:35:40;8.00;87.50
15483;DHT22;7843;50.330;7.312;2023-02-15T16:38:10;7.90;87.90
15483;DHT22;7843;50.330;7.312;2023-02-15T16:40:45;7.80;88.10
15483;DHT22;7843;50.330;7.312;2023-02-15T16:43:22;7.50;89.10
15483;DHT22;7843;50.330;7.312;2023-02-15T16:45:51;7.40;89.20
15483;DHT22;7843;50.330;7.312;2023-02-15T16:48:23;7.40;89.30
15483;DHT22;7843;50.330;7.312;2023-02-15T16:50:53;7.10;90.10
15483;DHT22;7843;50.330;7.312;2023-02-15T16:53:26;6.90;90.60
15483;DHT22;7843;50.330;7.312;2023-02-15T16:55:56;6.70;91.20
15483;DHT22;7843;50.330;7.312;2023-02-15T16:58:36;6.60;91.50
15483;DHT22;7843;50.330;7.312;2023-02-15T17:01:07;6.50;91.80
15483;DHT22;7843;50.330;7.312;2023-02-15T17:03:35;6.30;92.40
15483;DHT22;7843;50.330;7.312;2023-02-15T17:06:03;6.10;92.90
15483;DHT22;7843;50.330;7.312;2023-02-15T17:08:44;5.90;93.40
15483;DHT22;7843;50.330;7.312;2023-02-15T17:11:12;5.90;93.70
15483;DHT22;7843;50.330;7.312;2023-02-15T17:14:10;5.80;94.00
15483;DHT22;7843;50.330;7.312;2023-02-15T17:16:31;5.60;94.40
15483;DHT22;7843;50.330;7.312;2023-02-15T17:19:14;5.50;94.60
15483;DHT22;7843;50.330;7.312;2023-02-15T17:21:46;5.50;95.00
15483;DHT22;7843;50.330;7.312;2023-02-15T17:24:18;5.40;95.30
15483;DHT22;7843;50.330;7.312;2023-02-15T17:26:50;5.50;95.30
15483;DHT22;7843;50.330;7.312;2023-02-15T17:29:37;5.40;95.60
15483;DHT22;7843;50.330;7.312;2023-02-15T17:32:10;5.30;96.00
15483;DHT22;7843;50.330;7.312;2023-02-15T17:34:56;5.50;96.10
15483;DHT22;7843;50.330;7.312;2023-02-15T17:37:28;5.40;96.00
15483;DHT22;7843;50.330;7.312;2023-02-15T17:39:57;5.30;96.30
15483;DHT22;7843;50.330;7.312;2023-02-15T17:42:24;5.20;96.60
15483;DHT22;7843;50.330;7.312;2023-02-15T17:44:51;5.10;96.90
15483;DHT22;7843;50.330;7.312;2023-02-15T17:47:20;5.10;97.30
15483;DHT22;7843;50.330;7.312;2023-02-15T17:49:49;5.10;97.40
15483;DHT22;7843;50.330;7.312;2023-02-15T17:52:16;5.00;97.60
15483;DHT22;7843;50.330;7.312;2023-02-15T17:54:45;5.00;97.80
15483;DHT22;7843;50.330;7.312;2023-02-15T17:57:31;5.10;97.80
15483;DHT22;7843;50.330;7.312;2023-02-15T17:59:58;5.00;97.80
15483;DHT22;7843;50.330;7.312;2023-02-15T18:02:43;4.90;97.90
15483;DHT22;7843;50.330;7.312;2023-02-15T18:05:28;5.00;98.00
15483;DHT22;7843;50.330;7.312;2023-02-15T18:08:15;4.90;98.20
15483;DHT22;7843;50.330;7.312;2023-02-15T18:11:01;4.80;98.30
15483;DHT22;7843;50.330;7.312;2023-02-15T18:13:47;4.70;98.50
15483;DHT22;7843;50.330;7.312;2023-02-15T18:16:22;4.60;98.60
15483;DHT22;7843;50.330;7.312;2023-02-15T18:18:49;4.50;98.80
15483;DHT22;7843;50.330;7.312;2023-02-15T18:21:15;4.50;99.20
15483;DHT22;7843;50.330;7.312;2023-02-15T18:23:42;4.40;99.30
15483;DHT22;7843;50.330;7.312;2023-02-15T18:26:19;4.30;99.40
15483;DHT22;7843;50.330;7.312;2023-02-15T18:28:47;4.20;99.50
15483;DHT22;7843;50.330;7.312;2023-02-15T18:31:14;4.10;99.80
15483;DHT22;7843;50.330;7.312;2023-02-15T18:33:44;4.10;99.90
15483;DHT22;7843;50.330;7.312;2023-02-15T18:36:49;4.00;99.90
15483;DHT22;7843;50.330;7.312;2023-02-15T18:42:00;4.00;99.90
15483;DHT22;7843;50.330;7.312;2023-02-15T18:44:26;4.00;99.90
15483;DHT22;7843;50.330;7.312;2023-02-15T18:46:53;4.00;99.90
15483;DHT22;7843;50.330;7.312;2023-02-15T18:49:20;3.90;99.90
15483;DHT22;7843;50.330;7.312;2023-02-15T18:51:47;3.80;99.90
15483;DHT22;7843;50.330;7.312;2023-02-15T18:54:20;3.80;99.90
15483;DHT22;7843;50.330;7.312;2023-02-15T18:56:56;3.80;99.90
15483;DHT22;7843;50.330;7.312;2023-02-15T18:59:25;3.70;99.90
15483;DHT22;7843;50.330;7.312;2023-02-15T19:01:52;3.80;99.90
15483;DHT22;7843;50.330;7.312;2023-02-15T19:04:19;3.80;99.90